sensor_id;sensor_type;location;lat;lon;timestamp;P1;durP1;ratioP1;P2;durP2;ratioP2
54555;SDS011;57291;37.520;15.106;2022-08-01T00:00:46;7.05;;;3.03;;
54555;SDS011;57291;37.520;15.106;2022-08-01T00:03:13;6.32;;;3.15;;
54555;SDS011;57291;37.520;15.106;2022-08-01T00:05:40;10.05;;;3.28;;
54555;SDS011;57291;37.520;15.106;2022-08-01T00:08:10;5.53;;;2.80;;
54555;SDS011;57291;37.520;15.106;2022-08-01T00:10:37;6.78;;;3.17;;
54555;SDS011;57291;37.520;15.106;2022-08-01T00:13:04;6.75;;;3.05;;
54555;SDS011;57291;37.520;15.106;2022-08-01T00:15:31;7.28;;;3.00;;
54555;SDS011;57291;37.520;15.106;2022-08-01T00:17:58;6.05;;;3.20;;
54555;SDS011;57291;37.520;15.106;2022-08-01T00:20:26;8.25;;;3.13;;
54555;SDS011;57291;37.520;15.106;2022-08-01T00:22:53;6.95;;;2.70;;
54555;SDS011;57291;37.520;15.106;2022-08-01T00:25:20;6.25;;;2.95;;
54555;SDS011;57291;37.520;15.106;2022-08-01T00:27:59;8.73;;;2.72;;
54555;SDS011;57291;37.520;15.106;2022-08-01T00:30:26;8.50;;;3.55;;
54555;SDS011;57291;37.520;15.106;2022-08-01T00:32:53;7.03;;;3.30;;
54555;SDS011;57291;37.520;15.106;2022-08-01T00:35:20;6.20;;;2.90;;
54555;SDS011;57291;37.520;15.106;2022-08-01T00:37:47;10.90;;;3.10;;
54555;SDS011;57291;37.520;15.106;2022-08-01T00:40:15;6.93;;;2.97;;
54555;SDS011;57291;37.520;15.106;2022-08-01T00:42:42;8.13;;;3.42;;
54555;SDS011;57291;37.520;15.106;2022-08-01T00:45:10;8.55;;;3.35;;
54555;SDS011;57291;37.520;15.106;2022-08-01T00:47:38;7.50;;;2.90;;
54555;SDS011;57291;37.520;15.106;2022-08-01T00:50:05;9.02;;;3.10;;
54555;SDS011;57291;37.520;15.106;2022-08-01T00:52:33;5.38;;;2.83;;
54555;SDS011;57291;37.520;15.106;2022-08-01T00:55:01;6.35;;;3.08;;
54555;SDS011;57291;37.520;15.106;2022-08-01T00:57:29;6.72;;;2.88;;
54555;SDS011;57291;37.520;15.106;2022-08-01T01:00:16;11.02;;;3.20;;
54555;SDS011;57291;37.520;15.106;2022-08-01T01:02:52;8.30;;;3.30;;
54555;SDS011;57291;37.520;15.106;2022-08-01T01:05:19;7.05;;;3.20;;
54555;SDS011;57291;37.520;15.106;2022-08-01T01:07:54;6.93;;;3.17;;
54555;SDS011;57291;37.520;15.106;2022-08-01T01:10:54;7.45;;;3.33;;
54555;SDS011;57291;37.520;15.106;2022-08-01T01:13:35;7.18;;;3.72;;
54555;SDS011;57291;37.520;15.106;2022-08-01T01:16:17;7.90;;;3.92;;
54555;SDS011;57291;37.520;15.106;2022-08-01T01:18:49;7.25;;;3.67;;
54555;SDS011;57291;37.520;15.106;2022-08-01T01:21:26;8.02;;;4.03;;
54555;SDS011;57291;37.520;15.106;2022-08-01T01:26:57;8.48;;;4.10;;
54555;SDS011;57291;37.520;15.106;2022-08-01T01:29:36;6.50;;;3.85;;
54555;SDS011;57291;37.520;15.106;2022-08-01T01:32:38;7.97;;;3.75;;
54555;SDS011;57291;37.520;15.106;2022-08-01T01:35:19;9.05;;;3.90;;
54555;SDS011;57291;37.520;15.106;2022-08-01T01:37:50;7.85;;;3.30;;
54555;SDS011;57291;37.520;15.106;2022-08-01T01:40:22;6.72;;;3.47;;
54555;SDS011;57291;37.520;15.106;2022-08-01T01:42:51;8.25;;;3.92;;
54555;SDS011;57291;37.520;15.106;2022-08-01T01:45:19;9.88;;;3.67;;
54555;SDS011;57291;37.520;15.106;2022-08-01T01:47:50;7.57;;;3.55;;
54555;SDS011;57291;37.520;15.106;2022-08-01T01:50:22;7.90;;;3.55;;
54555;SDS011;57291;37.520;15.106;2022-08-01T01:52:50;5.80;;;3.22;;
54555;SDS011;57291;37.520;15.106;2022-08-01T01:55:19;7.55;;;3.40;;
54555;SDS011;57291;37.520;15.106;2022-08-01T01:57:50;7.75;;;3.38;;
54555;SDS011;57291;37.520;15.106;2022-08-01T02:00:20;5.85;;;2.78;;
54555;SDS011;57291;37.520;15.106;2022-08-01T02:02:48;6.25;;;3.63;;
54555;SDS011;57291;37.520;15.106;2022-08-01T02:05:18;8.40;;;3.60;;
54555;SDS011;57291;37.520;15.106;2022-08-01T02:07:46;5.68;;;2.92;;
54555;SDS011;57291;37.520;15.106;2022-08-01T02:10:14;6.40;;;3.08;;
54555;SDS011;57291;37.520;15.106;2022-08-01T02:12:44;7.00;;;3.58;;
54555;SDS011;57291;37.520;15.106;2022-08-01T02:15:16;8.38;;;3.63;;
54555;SDS011;57291;37.520;15.106;2022-08-01T02:17:46;6.45;;;3.28;;
54555;SDS011;57291;37.520;15.106;2022-08-01T02:20:16;5.97;;;3.63;;
54555;SDS011;57291;37.520;15.106;2022-08-01T02:22:46;6.30;;;3.22;;
54555;SDS011;57291;37.520;15.106;2022-08-01T02:25:23;7.35;;;2.92;;
54555;SDS011;57291;37.520;15.106;2022-08-01T02:27:56;7.47;;;3.63;;
54555;SDS011;57291;37.520;15.106;2022-08-01T02:30:30;5.13;;;3.70;;
54555;SDS011;57291;37.520;15.106;2022-08-01T02:33:19;6.70;;;4.00;;
54555;SDS011;57291;37.520;15.106;2022-08-01T02:35:50;11.40;;;4.63;;
54555;SDS011;57291;37.520;15.106;2022-08-01T02:38:41;7.50;;;4.60;;
54555;SDS011;57291;37.520;15.106;2022-08-01T02:41:11;8.50;;;4.28;;
54555;SDS011;57291;37.520;15.106;2022-08-01T02:43:45;8.18;;;4.15;;
54555;SDS011;57291;37.520;15.106;2022-08-01T02:46:29;6.60;;;4.50;;
54555;SDS011;57291;37.520;15.106;2022-08-01T02:49:18;8.30;;;4.55;;
54555;SDS011;57291;37.520;15.106;2022-08-01T02:51:48;5.20;;;4.05;;
54555;SDS011;57291;37.520;15.106;2022-08-01T02:54:17;7.82;;;5.30;;
54555;SDS011;57291;37.520;15.106;2022-08-01T02:56:48;6.88;;;4.32;;
54555;SDS011;57291;37.520;15.106;2022-08-01T02:59:18;5.78;;;4.32;;
54555;SDS011;57291;37.520;15.106;2022-08-01T03:01:51;7.80;;;4.90;;
54555;SDS011;57291;37.520;15.106;2022-08-01T03:04:22;5.25;;;4.30;;
54555;SDS011;57291;37.520;15.106;2022-08-01T03:06:51;8.00;;;5.05;;
54555;SDS011;57291;37.520;15.106;2022-08-01T03:09:20;8.85;;;4.90;;
54555;SDS011;57291;37.520;15.106;2022-08-01T03:11:49;5.97;;;4.00;;
54555;SDS011;57291;37.520;15.106;2022-08-01T03:14:17;7.18;;;4.38;;
54555;SDS011;57291;37.520;15.106;2022-08-01T03:16:48;5.70;;;3.83;;
54555;SDS011;57291;37.520;15.106;2022-08-01T03:19:16;9.77;;;4.15;;
54555;SDS011;57291;37.520;15.106;2022-08-01T03:21:45;7.18;;;4.03;;
54555;SDS011;57291;37.520;15.106;2022-08-01T03:24:15;6.30;;;3.83;;
54555;SDS011;57291;37.520;15.106;2022-08-01T03:26:44;7.88;;;3.90;;
54555;SDS011;57291;37.520;15.106;2022-08-01T03:29:15;6.45;;;3.85;;
54555;SDS011;57291;37.520;15.106;2022-08-01T03:31:46;8.35;;;3.65;;
54555;SDS011;57291;37.520;15.106;2022-08-01T03:34:15;7.00;;;3.88;;
54555;SDS011;57291;37.520;15.106;2022-08-01T03:36:47;6.47;;;3.70;;
54555;SDS011;57291;37.520;15.106;2022-08-01T03:39:19;5.32;;;3.28;;
54555;SDS011;57291;37.520;15.106;2022-08-01T03:41:54;5.95;;;3.80;;
54555;SDS011;57291;37.520;15.106;2022-08-01T03:44:26;7.88;;;4.00;;
54555;SDS011;57291;37.520;15.106;2022-08-01T03:46:58;6.30;;;4.10;;
54555;SDS011;57291;37.520;15.106;2022-08-01T03:49:44;5.55;;;3.42;;
54555;SDS011;57291;37.520;15.106;2022-08-01T03:52:13;8.40;;;4.05;;
54555;SDS011;57291;37.520;15.106;2022-08-01T03:54:43;12.07;;;5.43;;
54555;SDS011;57291;37.520;15.106;2022-08-01T03:57:13;9.55;;;6.03;;
54555;SDS011;57291;37.520;15.106;2022-08-01T04:00:02;10.38;;;6.50;;
54555;SDS011;57291;37.520;15.106;2022-08-01T04:02:40;11.13;;;5.80;;
54555;SDS011;57291;37.520;15.106;2022-08-01T04:05:08;9.18;;;4.65;;
54555;SDS011;57291;37.520;15.106;2022-08-01T04:07:36;8.15;;;4.00;;
54555;SDS011;57291;37.520;15.106;2022-08-01T04:10:05;7.68;;;3.92;;
54555;SDS011;57291;37.520;15.106;2022-08-01T04:12:33;6.72;;;4.32;;
54555;SDS011;57291;37.520;15.106;2022-08-01T04:15:01;7.05;;;4.07;;
54555;SDS011;57291;37.520;15.106;2022-08-01T04:17:30;5.72;;;4.22;;
54555;SDS011;57291;37.520;15.106;2022-08-01T04:19:57;7.75;;;4.30;;
54555;SDS011;57291;37.520;15.106;2022-08-01T04:22:24;9.02;;;4.30;;
54555;SDS011;57291;37.520;15.106;2022-08-01T04:24:52;7.28;;;4.32;;
54555;SDS011;57291;37.520;15.106;2022-08-01T04:27:24;10.48;;;4.10;;
54555;SDS011;57291;37.520;15.106;2022-08-01T04:30:17;8.18;;;4.63;;
54555;SDS011;57291;37.520;15.106;2022-08-01T04:32:49;7.72;;;4.30;;
54555;SDS011;57291;37.520;15.106;2022-08-01T04:35:19;8.35;;;4.32;;
54555;SDS011;57291;37.520;15.106;2022-08-01T04:38:08;8.20;;;5.03;;
54555;SDS011;57291;37.520;15.106;2022-08-01T04:40:37;6.07;;;4.28;;
54555;SDS011;57291;37.520;15.106;2022-08-01T04:43:05;10.52;;;4.75;;
54555;SDS011;57291;37.520;15.106;2022-08-01T04:45:33;8.63;;;4.78;;
54555;SDS011;57291;37.520;15.106;2022-08-01T04:48:02;9.10;;;4.50;;
54555;SDS011;57291;37.520;15.106;2022-08-01T04:50:34;8.70;;;4.00;;
54555;SDS011;57291;37.520;15.106;2022-08-01T04:53:03;6.50;;;4.10;;
54555;SDS011;57291;37.520;15.106;2022-08-01T04:55:30;6.63;;;4.30;;
54555;SDS011;57291;37.520;15.106;2022-08-01T04:57:58;9.57;;;4.20;;
54555;SDS011;57291;37.520;15.106;2022-08-01T05:00:25;7.07;;;4.15;;
54555;SDS011;57291;37.520;15.106;2022-08-01T05:02:52;8.25;;;3.80;;
54555;SDS011;57291;37.520;15.106;2022-08-01T05:05:20;7.85;;;4.50;;
54555;SDS011;57291;37.520;15.106;2022-08-01T05:07:47;8.75;;;4.65;;
54555;SDS011;57291;37.520;15.106;2022-08-01T05:10:14;8.93;;;5.15;;
54555;SDS011;57291;37.520;15.106;2022-08-01T05:12:41;10.60;;;5.68;;
54555;SDS011;57291;37.520;15.106;2022-08-01T05:15:08;9.75;;;5.10;;
54555;SDS011;57291;37.520;15.106;2022-08-01T05:17:41;7.03;;;4.82;;
54555;SDS011;57291;37.520;15.106;2022-08-01T05:20:11;7.07;;;4.63;;
54555;SDS011;57291;37.520;15.106;2022-08-01T05:22:39;8.65;;;4.75;;
54555;SDS011;57291;37.520;15.106;2022-08-01T05:25:07;11.98;;;5.47;;
54555;SDS011;57291;37.520;15.106;2022-08-01T05:27:37;6.22;;;4.32;;
54555;SDS011;57291;37.520;15.106;2022-08-01T05:30:07;8.65;;;4.50;;
54555;SDS011;57291;37.520;15.106;2022-08-01T05:32:36;8.63;;;3.80;;
54555;SDS011;57291;37.520;15.106;2022-08-01T05:35:03;7.60;;;4.00;;
54555;SDS011;57291;37.520;15.106;2022-08-01T05:37:31;7.18;;;3.72;;
54555;SDS011;57291;37.520;15.106;2022-08-01T05:39:58;8.20;;;3.90;;
54555;SDS011;57291;37.520;15.106;2022-08-01T05:42:25;7.28;;;3.42;;
54555;SDS011;57291;37.520;15.106;2022-08-01T05:44:52;5.57;;;2.90;;
54555;SDS011;57291;37.520;15.106;2022-08-01T05:47:19;8.38;;;3.40;;
54555;SDS011;57291;37.520;15.106;2022-08-01T05:49:47;8.50;;;3.63;;
54555;SDS011;57291;37.520;15.106;2022-08-01T05:52:14;7.53;;;3.92;;
54555;SDS011;57291;37.520;15.106;2022-08-01T05:54:41;7.47;;;3.65;;
54555;SDS011;57291;37.520;15.106;2022-08-01T05:57:08;6.13;;;3.35;;
54555;SDS011;57291;37.520;15.106;2022-08-01T05:59:36;6.93;;;3.50;;
54555;SDS011;57291;37.520;15.106;2022-08-01T06:02:03;7.35;;;3.10;;
54555;SDS011;57291;37.520;15.106;2022-08-01T06:04:31;5.60;;;2.63;;
54555;SDS011;57291;37.520;15.106;2022-08-01T06:06:58;5.15;;;2.45;;
54555;SDS011;57291;37.520;15.106;2022-08-01T06:09:25;7.32;;;3.03;;
54555;SDS011;57291;37.520;15.106;2022-08-01T06:11:53;5.65;;;3.10;;
54555;SDS011;57291;37.520;15.106;2022-08-01T06:14:20;8.55;;;3.13;;
54555;SDS011;57291;37.520;15.106;2022-08-01T06:16:47;5.20;;;2.88;;
54555;SDS011;57291;37.520;15.106;2022-08-01T06:19:14;7.50;;;2.90;;
54555;SDS011;57291;37.520;15.106;2022-08-01T06:21:41;4.97;;;2.55;;
54555;SDS011;57291;37.520;15.106;2022-08-01T06:24:08;5.53;;;2.65;;
54555;SDS011;57291;37.520;15.106;2022-08-01T06:26:35;5.20;;;2.70;;
54555;SDS011;57291;37.520;15.106;2022-08-01T06:29:03;5.20;;;2.38;;
54555;SDS011;57291;37.520;15.106;2022-08-01T06:31:31;7.38;;;3.00;;
54555;SDS011;57291;37.520;15.106;2022-08-01T06:33:59;7.93;;;2.67;;
54555;SDS011;57291;37.520;15.106;2022-08-01T06:36:26;6.65;;;3.15;;
54555;SDS011;57291;37.520;15.106;2022-08-01T06:38:53;6.82;;;3.08;;
54555;SDS011;57291;37.520;15.106;2022-08-01T06:41:20;5.80;;;2.25;;
54555;SDS011;57291;37.520;15.106;2022-08-01T06:43:48;5.43;;;2.78;;
54555;SDS011;57291;37.520;15.106;2022-08-01T06:46:15;5.50;;;2.03;;
54555;SDS011;57291;37.520;15.106;2022-08-01T06:48:42;5.18;;;2.20;;
54555;SDS011;57291;37.520;15.106;2022-08-01T06:51:09;4.07;;;2.05;;
54555;SDS011;57291;37.520;15.106;2022-08-01T06:53:40;5.85;;;2.80;;
54555;SDS011;57291;37.520;15.106;2022-08-01T06:56:09;6.20;;;3.10;;
54555;SDS011;57291;37.520;15.106;2022-08-01T06:58:36;3.10;;;2.30;;
54555;SDS011;57291;37.520;15.106;2022-08-01T07:01:04;5.50;;;2.40;;
54555;SDS011;57291;37.520;15.106;2022-08-01T07:03:33;8.55;;;2.30;;
54555;SDS011;57291;37.520;15.106;2022-08-01T07:06:19;7.80;;;2.75;;
54555;SDS011;57291;37.520;15.106;2022-08-01T07:08:54;4.43;;;2.40;;
54555;SDS011;57291;37.520;15.106;2022-08-01T07:11:22;4.22;;;2.38;;
54555;SDS011;57291;37.520;15.106;2022-08-01T07:13:50;5.93;;;2.53;;
54555;SDS011;57291;37.520;15.106;2022-08-01T07:16:19;5.22;;;2.17;;
54555;SDS011;57291;37.520;15.106;2022-08-01T07:18:46;9.95;;;3.30;;
54555;SDS011;57291;37.520;15.106;2022-08-01T07:21:13;8.98;;;3.47;;
54555;SDS011;57291;37.520;15.106;2022-08-01T07:24:00;4.85;;;2.92;;
54555;SDS011;57291;37.520;15.106;2022-08-01T07:26:42;10.25;;;3.35;;
54555;SDS011;57291;37.520;15.106;2022-08-01T07:29:20;6.90;;;3.38;;
54555;SDS011;57291;37.520;15.106;2022-08-01T07:31:48;7.47;;;3.00;;
54555;SDS011;57291;37.520;15.106;2022-08-01T07:34:15;8.63;;;3.28;;
54555;SDS011;57291;37.520;15.106;2022-08-01T07:36:42;5.75;;;2.70;;
54555;SDS011;57291;37.520;15.106;2022-08-01T07:39:09;5.88;;;2.60;;
54555;SDS011;57291;37.520;15.106;2022-08-01T07:41:36;7.32;;;2.95;;
54555;SDS011;57291;37.520;15.106;2022-08-01T07:44:23;5.70;;;2.92;;
54555;SDS011;57291;37.520;15.106;2022-08-01T07:46:53;5.15;;;2.17;;
54555;SDS011;57291;37.520;15.106;2022-08-01T07:49:20;3.22;;;2.13;;
54555;SDS011;57291;37.520;15.106;2022-08-01T07:51:48;4.38;;;2.30;;
54555;SDS011;57291;37.520;15.106;2022-08-01T07:54:29;7.00;;;2.13;;
54555;SDS011;57291;37.520;15.106;2022-08-01T07:57:00;5.30;;;1.98;;
54555;SDS011;57291;37.520;15.106;2022-08-01T07:59:28;6.70;;;2.17;;
54555;SDS011;57291;37.520;15.106;2022-08-01T08:01:56;7.97;;;2.65;;
54555;SDS011;57291;37.520;15.106;2022-08-01T08:04:23;7.57;;;2.63;;
54555;SDS011;57291;37.520;15.106;2022-08-01T08:06:51;5.18;;;2.92;;
54555;SDS011;57291;37.520;15.106;2022-08-01T08:09:19;7.60;;;2.70;;
54555;SDS011;57291;37.520;15.106;2022-08-01T08:11:47;3.65;;;2.35;;
54555;SDS011;57291;37.520;15.106;2022-08-01T08:14:15;6.88;;;2.85;;
54555;SDS011;57291;37.520;15.106;2022-08-01T08:16:43;7.82;;;2.88;;
54555;SDS011;57291;37.520;15.106;2022-08-01T08:19:11;4.45;;;2.70;;
54555;SDS011;57291;37.520;15.106;2022-08-01T08:21:38;5.28;;;2.58;;
54555;SDS011;57291;37.520;15.106;2022-08-01T08:24:09;5.15;;;2.63;;
54555;SDS011;57291;37.520;15.106;2022-08-01T08:26:56;5.50;;;2.70;;
54555;SDS011;57291;37.520;15.106;2022-08-01T08:29:25;4.20;;;2.47;;
54555;SDS011;57291;37.520;15.106;2022-08-01T08:31:53;4.93;;;2.40;;
54555;SDS011;57291;37.520;15.106;2022-08-01T08:34:24;6.68;;;2.38;;
54555;SDS011;57291;37.520;15.106;2022-08-01T08:36:53;6.03;;;2.15;;
54555;SDS011;57291;37.520;15.106;2022-08-01T08:39:24;3.67;;;2.43;;
54555;SDS011;57291;37.520;15.106;2022-08-01T08:41:52;4.35;;;2.28;;
54555;SDS011;57291;37.520;15.106;2022-08-01T08:44:19;4.53;;;2.50;;
54555;SDS011;57291;37.520;15.106;2022-08-01T08:46:49;6.45;;;2.53;;
54555;SDS011;57291;37.520;15.106;2022-08-01T08:49:19;5.60;;;2.58;;
54555;SDS011;57291;37.520;15.106;2022-08-01T08:51:49;7.55;;;2.30;;
54555;SDS011;57291;37.520;15.106;2022-08-01T08:54:22;6.28;;;2.60;;
54555;SDS011;57291;37.520;15.106;2022-08-01T08:56:57;5.43;;;2.33;;
54555;SDS011;57291;37.520;15.106;2022-08-01T08:59:26;3.72;;;2.38;;
54555;SDS011;57291;37.520;15.106;2022-08-01T09:01:55;4.82;;;2.38;;
54555;SDS011;57291;37.520;15.106;2022-08-01T09:04:29;6.50;;;2.58;;
54555;SDS011;57291;37.520;15.106;2022-08-01T09:06:57;6.22;;;2.33;;
54555;SDS011;57291;37.520;15.106;2022-08-01T09:09:24;7.32;;;2.55;;
54555;SDS011;57291;37.520;15.106;2022-08-01T09:11:53;4.97;;;2.80;;
54555;SDS011;57291;37.520;15.106;2022-08-01T09:14:23;3.60;;;2.27;;
54555;SDS011;57291;37.520;15.106;2022-08-01T09:17:00;5.10;;;3.00;;
54555;SDS011;57291;37.520;15.106;2022-08-01T09:22:07;6.22;;;2.85;;
54555;SDS011;57291;37.520;15.106;2022-08-01T09:24:36;6.55;;;2.95;;
54555;SDS011;57291;37.520;15.106;2022-08-01T09:27:18;6.60;;;3.22;;
54555;SDS011;57291;37.520;15.106;2022-08-01T09:29:48;6.32;;;3.10;;
54555;SDS011;57291;37.520;15.106;2022-08-01T09:32:30;5.80;;;2.85;;
54555;SDS011;57291;37.520;15.106;2022-08-01T09:35:23;6.68;;;3.08;;
54555;SDS011;57291;37.520;15.106;2022-08-01T09:43:27;5.20;;;3.40;;
54555;SDS011;57291;37.520;15.106;2022-08-01T09:45:57;6.32;;;3.05;;
54555;SDS011;57291;37.520;15.106;2022-08-01T09:48:25;6.70;;;3.25;;
54555;SDS011;57291;37.520;15.106;2022-08-01T09:50:56;7.03;;;3.15;;
54555;SDS011;57291;37.520;15.106;2022-08-01T09:53:45;8.30;;;3.47;;
54555;SDS011;57291;37.520;15.106;2022-08-01T09:56:18;4.63;;;2.65;;
54555;SDS011;57291;37.520;15.106;2022-08-01T09:58:51;9.32;;;3.35;;
54555;SDS011;57291;37.520;15.106;2022-08-01T10:01:26;7.38;;;3.20;;
54555;SDS011;57291;37.520;15.106;2022-08-01T10:04:13;9.00;;;3.95;;
54555;SDS011;57291;37.520;15.106;2022-08-01T10:06:43;5.50;;;3.28;;
54555;SDS011;57291;37.520;15.106;2022-08-01T10:09:13;6.82;;;3.75;;
54555;SDS011;57291;37.520;15.106;2022-08-01T10:11:42;7.05;;;3.60;;
54555;SDS011;57291;37.520;15.106;2022-08-01T10:14:10;6.72;;;3.28;;
54555;SDS011;57291;37.520;15.106;2022-08-01T10:16:44;5.82;;;3.25;;
54555;SDS011;57291;37.520;15.106;2022-08-01T10:19:21;7.57;;;2.85;;
54555;SDS011;57291;37.520;15.106;2022-08-01T10:21:54;6.68;;;3.22;;
54555;SDS011;57291;37.520;15.106;2022-08-01T10:24:26;7.80;;;3.25;;
54555;SDS011;57291;37.520;15.106;2022-08-01T10:27:01;8.82;;;2.85;;
54555;SDS011;57291;37.520;15.106;2022-08-01T10:32:33;5.90;;;3.00;;
54555;SDS011;57291;37.520;15.106;2022-08-01T10:35:05;6.78;;;3.80;;
54555;SDS011;57291;37.520;15.106;2022-08-01T10:37:41;6.53;;;3.47;;
54555;SDS011;57291;37.520;15.106;2022-08-01T10:40:18;5.20;;;3.10;;
54555;SDS011;57291;37.520;15.106;2022-08-01T10:43:02;5.78;;;3.25;;
54555;SDS011;57291;37.520;15.106;2022-08-01T10:45:30;7.78;;;3.22;;
54555;SDS011;57291;37.520;15.106;2022-08-01T10:48:06;6.93;;;3.40;;
54555;SDS011;57291;37.520;15.106;2022-08-01T10:50:40;6.07;;;3.20;;
54555;SDS011;57291;37.520;15.106;2022-08-01T10:53:21;9.45;;;3.42;;
54555;SDS011;57291;37.520;15.106;2022-08-01T10:56:08;8.05;;;3.38;;
54555;SDS011;57291;37.520;15.106;2022-08-01T10:58:42;7.40;;;3.50;;
54555;SDS011;57291;37.520;15.106;2022-08-01T11:01:23;7.10;;;3.20;;
54555;SDS011;57291;37.520;15.106;2022-08-01T11:04:07;5.88;;;3.80;;
54555;SDS011;57291;37.520;15.106;2022-08-01T11:06:43;6.57;;;3.83;;
54555;SDS011;57291;37.520;15.106;2022-08-01T11:09:45;7.82;;;3.88;;
54555;SDS011;57291;37.520;15.106;2022-08-01T11:12:17;6.65;;;3.70;;
54555;SDS011;57291;37.520;15.106;2022-08-01T11:20:11;10.45;;;3.50;;
54555;SDS011;57291;37.520;15.106;2022-08-01T11:28:25;7.40;;;4.00;;
54555;SDS011;57291;37.520;15.106;2022-08-01T11:38:44;6.68;;;3.75;;
54555;SDS011;57291;37.520;15.106;2022-08-01T11:41:26;7.40;;;3.80;;
54555;SDS011;57291;37.520;15.106;2022-08-01T11:46:48;9.98;;;3.70;;
54555;SDS011;57291;37.520;15.106;2022-08-01T11:52:28;9.07;;;4.10;;
54555;SDS011;57291;37.520;15.106;2022-08-01T11:57:30;5.18;;;4.07;;
54555;SDS011;57291;37.520;15.106;2022-08-01T12:00:09;6.82;;;4.20;;
54555;SDS011;57291;37.520;15.106;2022-08-01T12:02:41;5.82;;;3.90;;
54555;SDS011;57291;37.520;15.106;2022-08-01T12:05:11;6.60;;;4.28;;
54555;SDS011;57291;37.520;15.106;2022-08-01T12:07:41;8.90;;;4.57;;
54555;SDS011;57291;37.520;15.106;2022-08-01T12:10:14;9.38;;;4.57;;
54555;SDS011;57291;37.520;15.106;2022-08-01T12:15:17;8.25;;;4.63;;
54555;SDS011;57291;37.520;15.106;2022-08-01T12:17:57;8.15;;;4.47;;
54555;SDS011;57291;37.520;15.106;2022-08-01T12:20:28;6.68;;;4.45;;
54555;SDS011;57291;37.520;15.106;2022-08-01T12:23:12;9.45;;;4.45;;
54555;SDS011;57291;37.520;15.106;2022-08-01T12:25:41;8.45;;;4.53;;
54555;SDS011;57291;37.520;15.106;2022-08-01T12:28:11;7.80;;;4.13;;
54555;SDS011;57291;37.520;15.106;2022-08-01T12:30:40;7.07;;;4.30;;
54555;SDS011;57291;37.520;15.106;2022-08-01T12:33:09;6.32;;;4.15;;
54555;SDS011;57291;37.520;15.106;2022-08-01T12:35:37;8.15;;;3.95;;
54555;SDS011;57291;37.520;15.106;2022-08-01T12:38:14;6.72;;;3.92;;
54555;SDS011;57291;37.520;15.106;2022-08-01T12:40:44;8.70;;;4.93;;
54555;SDS011;57291;37.520;15.106;2022-08-01T12:43:20;11.85;;;4.75;;
54555;SDS011;57291;37.520;15.106;2022-08-01T12:45:55;11.15;;;4.82;;
54555;SDS011;57291;37.520;15.106;2022-08-01T12:48:25;8.55;;;4.35;;
54555;SDS011;57291;37.520;15.106;2022-08-01T12:50:53;7.60;;;4.47;;
54555;SDS011;57291;37.520;15.106;2022-08-01T12:53:24;9.77;;;5.05;;
54555;SDS011;57291;37.520;15.106;2022-08-01T12:56:07;6.55;;;4.43;;
54555;SDS011;57291;37.520;15.106;2022-08-01T12:58:37;7.20;;;4.80;;
54555;SDS011;57291;37.520;15.106;2022-08-01T13:01:05;5.95;;;4.28;;
54555;SDS011;57291;37.520;15.106;2022-08-01T13:03:34;8.07;;;4.22;;
54555;SDS011;57291;37.520;15.106;2022-08-01T13:06:08;5.53;;;4.80;;
54555;SDS011;57291;37.520;15.106;2022-08-01T13:08:42;7.82;;;4.53;;
54555;SDS011;57291;37.520;15.106;2022-08-01T13:11:11;6.45;;;4.38;;
54555;SDS011;57291;37.520;15.106;2022-08-01T13:13:45;6.68;;;4.38;;
54555;SDS011;57291;37.520;15.106;2022-08-01T13:16:17;9.52;;;4.10;;
54555;SDS011;57291;37.520;15.106;2022-08-01T13:19:03;4.85;;;3.80;;
54555;SDS011;57291;37.520;15.106;2022-08-01T13:21:32;7.00;;;3.90;;
54555;SDS011;57291;37.520;15.106;2022-08-01T13:24:23;7.10;;;3.75;;
54555;SDS011;57291;37.520;15.106;2022-08-01T13:26:54;6.45;;;4.47;;
54555;SDS011;57291;37.520;15.106;2022-08-01T13:29:34;8.65;;;4.25;;
54555;SDS011;57291;37.520;15.106;2022-08-01T13:32:12;5.90;;;3.53;;
54555;SDS011;57291;37.520;15.106;2022-08-01T13:35:07;9.15;;;3.92;;
54555;SDS011;57291;37.520;15.106;2022-08-01T13:37:37;9.32;;;3.80;;
54555;SDS011;57291;37.520;15.106;2022-08-01T13:40:05;8.95;;;3.25;;
54555;SDS011;57291;37.520;15.106;2022-08-01T13:42:34;6.72;;;3.10;;
54555;SDS011;57291;37.520;15.106;2022-08-01T13:45:02;11.10;;;3.47;;
54555;SDS011;57291;37.520;15.106;2022-08-01T13:47:39;11.88;;;3.45;;
54555;SDS011;57291;37.520;15.106;2022-08-01T13:50:27;7.72;;;3.00;;
54555;SDS011;57291;37.520;15.106;2022-08-01T13:52:54;7.95;;;2.85;;
54555;SDS011;57291;37.520;15.106;2022-08-01T13:55:21;7.38;;;2.85;;
54555;SDS011;57291;37.520;15.106;2022-08-01T13:57:49;7.47;;;2.50;;
54555;SDS011;57291;37.520;15.106;2022-08-01T14:00:16;8.93;;;2.60;;
54555;SDS011;57291;37.520;15.106;2022-08-01T14:02:44;7.50;;;2.85;;
54555;SDS011;57291;37.520;15.106;2022-08-01T14:05:11;8.48;;;2.70;;
54555;SDS011;57291;37.520;15.106;2022-08-01T14:07:38;6.80;;;2.17;;
54555;SDS011;57291;37.520;15.106;2022-08-01T14:10:06;7.88;;;2.50;;
54555;SDS011;57291;37.520;15.106;2022-08-01T14:12:46;7.68;;;2.20;;
54555;SDS011;57291;37.520;15.106;2022-08-01T14:15:15;4.90;;;2.20;;
54555;SDS011;57291;37.520;15.106;2022-08-01T14:18:03;6.63;;;2.72;;
54555;SDS011;57291;37.520;15.106;2022-08-01T14:20:31;3.67;;;1.98;;
54555;SDS011;57291;37.520;15.106;2022-08-01T14:22:59;12.07;;;2.40;;
54555;SDS011;57291;37.520;15.106;2022-08-01T14:25:27;8.45;;;2.13;;
54555;SDS011;57291;37.520;15.106;2022-08-01T14:28:14;7.32;;;1.98;;
54555;SDS011;57291;37.520;15.106;2022-08-01T14:30:42;6.30;;;2.42;;
54555;SDS011;57291;37.520;15.106;2022-08-01T14:33:10;6.30;;;2.40;;
54555;SDS011;57291;37.520;15.106;2022-08-01T14:35:37;10.50;;;2.30;;
54555;SDS011;57291;37.520;15.106;2022-08-01T14:38:25;6.30;;;1.85;;
54555;SDS011;57291;37.520;15.106;2022-08-01T14:40:57;9.10;;;2.60;;
54555;SDS011;57291;37.520;15.106;2022-08-01T14:43:26;6.93;;;2.60;;
54555;SDS011;57291;37.520;15.106;2022-08-01T14:45:59;7.05;;;2.53;;
54555;SDS011;57291;37.520;15.106;2022-08-01T14:48:30;8.20;;;2.47;;
54555;SDS011;57291;37.520;15.106;2022-08-01T14:50:58;5.82;;;2.47;;
54555;SDS011;57291;37.520;15.106;2022-08-01T14:53:29;9.90;;;2.78;;
54555;SDS011;57291;37.520;15.106;2022-08-01T14:56:01;6.35;;;2.60;;
54555;SDS011;57291;37.520;15.106;2022-08-01T14:58:32;7.00;;;2.50;;
54555;SDS011;57291;37.520;15.106;2022-08-01T15:01:00;4.75;;;2.80;;
54555;SDS011;57291;37.520;15.106;2022-08-01T15:03:27;6.40;;;2.13;;
54555;SDS011;57291;37.520;15.106;2022-08-01T15:05:55;7.72;;;3.00;;
54555;SDS011;57291;37.520;15.106;2022-08-01T15:08:22;10.48;;;2.40;;
54555;SDS011;57291;37.520;15.106;2022-08-01T15:10:50;7.28;;;2.47;;
54555;SDS011;57291;37.520;15.106;2022-08-01T15:13:17;7.00;;;2.42;;
54555;SDS011;57291;37.520;15.106;2022-08-01T15:15:45;4.90;;;2.38;;
54555;SDS011;57291;37.520;15.106;2022-08-01T15:18:12;5.90;;;2.50;;
54555;SDS011;57291;37.520;15.106;2022-08-01T15:20:39;6.18;;;2.70;;
54555;SDS011;57291;37.520;15.106;2022-08-01T15:23:06;8.73;;;2.83;;
54555;SDS011;57291;37.520;15.106;2022-08-01T15:25:33;10.07;;;2.30;;
54555;SDS011;57291;37.520;15.106;2022-08-01T15:28:08;8.70;;;2.75;;
54555;SDS011;57291;37.520;15.106;2022-08-01T15:30:36;8.43;;;2.30;;
54555;SDS011;57291;37.520;15.106;2022-08-01T15:33:03;6.80;;;2.60;;
54555;SDS011;57291;37.520;15.106;2022-08-01T15:35:31;8.10;;;3.03;;
54555;SDS011;57291;37.520;15.106;2022-08-01T15:37:58;8.23;;;2.90;;
54555;SDS011;57291;37.520;15.106;2022-08-01T15:40:25;8.00;;;2.45;;
54555;SDS011;57291;37.520;15.106;2022-08-01T15:42:54;12.18;;;2.80;;